createdAt,value
2019-01-11T00:02:45.871Z,42.88
2019-01-11T00:05:16.231Z,42.72
2019-01-11T00:08:05.160Z,42.51
2019-01-11T00:10:54.725Z,42.32
2019-01-11T00:13:25.050Z,41.93
2019-01-11T00:15:55.300Z,41.51
2019-01-11T00:18:44.556Z,41.70
2019-01-11T00:21:14.745Z,41.75
2019-01-11T00:24:03.685Z,41.74
2019-01-11T00:26:52.990Z,41.67
2019-01-11T00:29:23.212Z,41.73
2019-01-11T00:31:53.531Z,42.13
2019-01-11T00:34:23.919Z,42.39
2019-01-11T00:36:54.180Z,42.71
2019-01-11T00:39:43.397Z,42.99
2019-01-11T00:42:13.676Z,43.05
2019-01-11T00:44:43.907Z,42.85
2019-01-11T00:47:33.206Z,42.60
2019-01-11T00:50:22.164Z,42.28
2019-01-11T00:53:12.472Z,42.28
2019-01-11T00:55:44.479Z,42.17
2019-01-11T00:58:15.691Z,42.05
2019-01-11T01:00:47.822Z,41.47
2019-01-11T01:03:18.960Z,41.53
2019-01-11T01:08:50.157Z,41.69
2019-01-11T01:11:20.493Z,41.69
2019-01-11T01:13:50.824Z,42.24
2019-01-11T01:16:21.441Z,42.57
2019-01-11T01:18:53.482Z,42.90
2019-01-11T01:21:23.816Z,43.05
2019-01-11T01:23:55.913Z,43.06
2019-01-11T01:29:35.917Z,43.41
2019-01-11T01:32:06.305Z,43.72
2019-01-11T01:41:03.942Z,43.30
2019-01-11T01:43:44.542Z,43.42
2019-01-11T01:46:33.786Z,43.41
2019-01-11T01:49:04.064Z,43.16
2019-01-11T01:51:36.354Z,43.15
2019-01-11T01:54:25.610Z,42.98
2019-01-11T01:56:55.863Z,42.47
2019-01-11T01:59:26.104Z,42.64
2019-01-11T02:02:18.122Z,43.28
2019-01-11T02:04:49.352Z,43.63
2019-01-11T02:07:19.697Z,43.64
2019-01-11T02:16:24.392Z,43.30
2019-01-11T02:22:29.669Z,43.32
2019-01-11T02:25:00.321Z,42.80
2019-01-11T02:27:49.923Z,42.50
2019-01-11T02:33:48.056Z,42.42
2019-01-11T02:36:06.091Z,42.72
2019-01-11T02:38:59.684Z,42.67
2019-01-11T02:44:37.952Z,43.25
2019-01-11T02:47:08.265Z,43.35
2019-01-11T02:50:03.440Z,43.41
2019-01-11T02:52:39.656Z,43.41
2019-01-11T02:55:29.662Z,43.00
2019-01-11T02:58:02.143Z,42.79
2019-01-11T03:00:51.396Z,42.87
2019-01-11T03:03:42.949Z,43.79
2019-01-11T03:06:32.305Z,44.11
2019-01-11T03:12:02.377Z,44.83
2019-01-11T03:14:32.668Z,44.85
2019-01-11T03:17:26.927Z,44.17
2019-01-11T03:23:32.240Z,44.55
2019-01-11T03:25:53.863Z,44.79
2019-01-11T03:28:24.108Z,45.01
2019-01-11T03:34:15.682Z,45.39
2019-01-11T03:37:05.069Z,45.92
2019-01-11T03:40:08.288Z,46.30
2019-01-11T03:43:08.856Z,45.93
2019-01-11T03:46:09.598Z,46.14
2019-01-11T03:48:58.884Z,46.35
2019-01-11T03:51:48.253Z,46.34
2019-01-11T03:54:38.989Z,46.58
2019-01-11T04:00:49.283Z,47.33
2019-01-11T04:06:33.585Z,47.63
2019-01-11T04:09:22.817Z,47.54
2019-01-11T04:15:17.937Z,47.28
2019-01-11T04:18:26.242Z,47.32
2019-01-11T04:27:02.763Z,47.39
2019-01-11T04:29:33.046Z,47.75
2019-01-11T04:32:03.333Z,47.82
2019-01-11T04:35:12.818Z,47.48
2019-01-11T04:38:02.128Z,47.23
2019-01-11T04:40:51.360Z,47.25
2019-01-11T04:43:40.610Z,47.47
2019-01-11T04:46:21.411Z,47.79
2019-01-11T04:49:27.896Z,48.74
2019-01-11T04:51:50.413Z,49.30
2019-01-11T04:55:00.452Z,49.33
2019-01-11T04:57:52.243Z,49.53
2019-01-11T05:00:41.559Z,50.07
2019-01-11T05:03:11.884Z,49.71
2019-01-11T05:06:01.151Z,50.40
2019-01-11T05:08:31.412Z,50.58
2019-01-11T05:13:46.049Z,50.51
2019-01-11T05:16:16.289Z,50.82
2019-01-11T05:19:06.334Z,50.79
2019-01-11T05:21:55.999Z,51.03
2019-01-11T05:27:25.853Z,51.44
2019-01-11T05:29:56.214Z,51.33
2019-01-11T05:32:26.504Z,51.67
2019-01-11T05:35:15.831Z,51.87
2019-01-11T05:37:46.238Z,51.80
2019-01-11T05:40:20.806Z,51.89
2019-01-11T05:42:51.034Z,51.66
2019-01-11T05:45:24.328Z,51.97
2019-01-11T05:47:54.877Z,52.31
2019-01-11T05:50:25.134Z,52.71
2019-01-11T05:53:14.104Z,53.13
2019-01-11T05:59:07.644Z,52.53
2019-01-11T06:01:56.935Z,53.25
2019-01-11T06:04:45.945Z,53.70
2019-01-11T06:07:54.158Z,53.75
2019-01-11T06:10:43.922Z,53.61
2019-01-11T06:13:33.244Z,53.96
2019-01-11T06:16:03.569Z,54.27
2019-01-11T06:18:33.875Z,53.85
2019-01-11T06:21:24.026Z,54.25
2019-01-11T06:23:55.123Z,54.67
2019-01-11T06:26:26.195Z,55.16
2019-01-11T06:29:16.216Z,55.16
2019-01-11T06:31:47.339Z,54.50
2019-01-11T06:34:17.645Z,54.58
2019-01-11T06:37:07.089Z,54.56
2019-01-11T06:40:15.060Z,54.93
2019-01-11T06:42:45.699Z,55.27
2019-01-11T06:48:48.436Z,55.53
2019-01-11T06:51:18.930Z,55.76
2019-01-11T06:53:49.267Z,55.61
2019-01-11T06:56:21.141Z,55.58
2019-01-11T06:58:52.178Z,55.35
2019-01-11T07:01:23.306Z,55.89
2019-01-11T07:03:53.577Z,55.96
2019-01-11T07:06:24.608Z,56.41
2019-01-11T07:08:55.699Z,56.12
2019-01-11T07:14:29.585Z,55.48
2019-01-11T07:16:59.925Z,55.92
2019-01-11T07:19:49.230Z,55.81
2019-01-11T07:22:19.590Z,55.40
2019-01-11T07:24:53.395Z,55.69
2019-01-11T07:27:38.573Z,55.04
2019-01-11T07:29:55.728Z,55.83
2019-01-11T07:32:47.371Z,56.01
2019-01-11T07:35:50.327Z,56.28
2019-01-11T07:38:20.761Z,56.13
2019-01-11T07:40:51.387Z,56.02
2019-01-11T07:43:41.065Z,55.05
2019-01-11T07:46:11.689Z,55.05
2019-01-11T07:49:23.273Z,55.54
2019-01-11T07:52:13.636Z,55.54
2019-01-11T07:54:43.973Z,55.87
2019-01-11T07:57:32.944Z,55.55
2019-01-11T08:00:03.338Z,55.43
2019-01-11T08:02:49.053Z,54.95
2019-01-11T08:05:25.509Z,54.95
2019-01-11T08:08:15.552Z,56.61
2019-01-11T08:10:45.880Z,56.61
2019-01-11T08:16:26.623Z,56.46
2019-01-11T08:19:15.926Z,55.90
2019-01-11T08:22:04.993Z,56.24
2019-01-11T08:27:47.831Z,55.66
2019-01-11T08:36:08.707Z,56.00
2019-01-11T08:38:57.974Z,55.78
2019-01-11T08:41:47.324Z,55.57
2019-01-11T08:44:17.683Z,55.54
2019-01-11T08:46:47.965Z,55.12
2019-01-11T08:49:37.379Z,55.88
2019-01-11T08:52:29.132Z,56.04
2019-01-11T08:54:59.487Z,56.21
2019-01-11T08:57:29.800Z,56.28
2019-01-11T09:00:19.033Z,55.79
2019-01-11T09:02:49.349Z,56.02
2019-01-11T09:05:19.686Z,56.60
2019-01-11T09:26:12.055Z,55.53
2019-01-11T09:28:46.568Z,56.02
2019-01-11T09:31:27.745Z,55.92
2019-01-11T09:34:08.700Z,55.92
2019-01-11T09:36:45.790Z,55.66
2019-01-11T09:39:27.801Z,55.92
2019-01-11T09:42:14.913Z,55.38
2019-01-11T09:44:45.220Z,55.46
2019-01-11T09:47:16.040Z,55.57
2019-01-11T09:49:46.394Z,55.35
2019-01-11T09:52:19.986Z,55.55
2019-01-11T09:54:50.339Z,55.40
2019-01-11T09:57:21.431Z,55.12
2019-01-11T09:59:51.797Z,55.12
2019-01-11T10:02:39.562Z,55.33
2019-01-11T10:05:17.411Z,55.54
2019-01-11T10:07:48.027Z,55.20
2019-01-11T10:10:18.299Z,55.52
2019-01-11T10:12:49.341Z,55.35
2019-01-11T10:15:31.243Z,55.24
2019-01-11T10:18:05.158Z,55.35
2019-01-11T10:20:36.420Z,55.42
2019-01-11T10:23:08.789Z,55.57
2019-01-11T10:25:43.522Z,55.87
2019-01-11T10:28:36.294Z,55.61
2019-01-11T10:31:06.742Z,55.12
2019-01-11T10:33:37.900Z,55.74
2019-01-11T10:36:08.284Z,55.68
2019-01-11T10:38:40.854Z,55.86
2019-01-11T10:41:11.140Z,56.10
2019-01-11T10:43:42.238Z,55.92
2019-01-11T10:46:33.554Z,55.70
2019-01-11T10:49:04.180Z,55.40
2019-01-11T10:51:35.715Z,55.01
2019-01-11T10:54:07.673Z,55.54
2019-01-11T10:56:41.540Z,55.83
2019-01-11T10:59:14.640Z,55.50
2019-01-11T11:01:44.956Z,55.68
2019-01-11T11:04:15.599Z,55.44
2019-01-11T11:06:46.171Z,55.61
2019-01-11T11:09:16.519Z,55.93
2019-01-11T11:11:49.826Z,55.91
2019-01-11T11:14:20.407Z,55.54
2019-01-11T11:16:53.148Z,55.44
2019-01-11T11:19:26.362Z,56.03
2019-01-11T11:22:00.830Z,56.20
2019-01-11T11:24:34.496Z,55.90
2019-01-11T11:27:04.764Z,56.04
2019-01-11T11:29:37.753Z,55.63
2019-01-11T11:32:08.183Z,56.07
2019-01-11T11:34:40.156Z,56.68
2019-01-11T11:37:13.448Z,56.69
2019-01-11T11:39:48.676Z,56.96
2019-01-11T11:42:18.968Z,57.58
2019-01-11T11:44:49.293Z,57.07
2019-01-11T11:47:19.694Z,56.42
2019-01-11T11:49:50.377Z,56.71
2019-01-11T11:52:20.716Z,56.27
2019-01-11T11:54:54.967Z,56.42
2019-01-11T11:57:25.339Z,56.36
2019-01-11T11:59:57.081Z,56.45
2019-01-11T12:02:29.891Z,57.04
2019-01-11T12:04:59.963Z,57.03
2019-01-11T12:07:30.393Z,56.00
2019-01-11T12:10:01.499Z,56.01
2019-01-11T12:12:32.609Z,56.34
2019-01-11T12:15:06.094Z,56.35
2019-01-11T12:17:44.315Z,55.92
2019-01-11T12:20:32.573Z,55.81
2019-01-11T12:23:02.967Z,55.46
2019-01-11T12:25:33.641Z,56.08
2019-01-11T12:28:04.185Z,56.20
2019-01-11T12:30:37.220Z,56.16
2019-01-11T12:33:08.718Z,55.89
2019-01-11T12:35:38.988Z,55.96
2019-01-11T12:38:13.781Z,55.80
2019-01-11T12:40:43.412Z,55.68
2019-01-11T12:43:24.366Z,55.27
2019-01-11T12:45:55.221Z,55.31
2019-01-11T12:48:31.236Z,55.83
2019-01-11T12:51:02.895Z,56.36
2019-01-11T12:53:34.138Z,56.58
2019-01-11T12:56:07.550Z,56.58
2019-01-11T12:59:05.908Z,57.05
2019-01-11T13:01:43.564Z,57.09
2019-01-11T13:04:22.331Z,56.38
2019-01-11T13:06:54.501Z,56.45
2019-01-11T13:09:24.906Z,56.31
2019-01-11T13:11:58.851Z,57.11
2019-01-11T13:14:33.319Z,56.62
2019-01-11T13:17:03.799Z,56.49
2019-01-11T13:19:35.451Z,56.42
2019-01-11T13:22:08.031Z,56.07
2019-01-11T13:24:41.713Z,56.36
2019-01-11T13:27:11.542Z,57.17
2019-01-11T13:29:42.586Z,56.36
2019-01-11T13:32:15.114Z,56.24
2019-01-11T13:34:53.192Z,56.48
2019-01-11T13:37:28.182Z,56.64
2019-01-11T13:40:01.141Z,57.14
2019-01-11T13:42:32.195Z,56.82
2019-01-11T13:45:02.506Z,55.71
2019-01-11T13:47:38.275Z,56.15
2019-01-11T13:50:17.827Z,56.58
2019-01-11T13:52:52.248Z,56.38
2019-01-11T13:55:28.015Z,56.65
2019-01-11T13:57:59.447Z,56.39
2019-01-11T14:00:29.823Z,56.84
2019-01-11T14:03:02.338Z,56.30
2019-01-11T14:05:35.892Z,56.26
2019-01-11T14:08:07.246Z,55.75
2019-01-11T14:10:40.595Z,55.68
2019-01-11T14:13:11.216Z,55.89
2019-01-11T14:15:42.317Z,56.80
2019-01-11T14:18:12.759Z,56.65
2019-01-11T14:20:45.541Z,56.47
2019-01-11T14:23:15.956Z,56.24
2019-01-11T14:25:47.514Z,56.50
2019-01-11T14:28:17.936Z,56.42
2019-01-11T14:30:48.284Z,56.84
2019-01-11T14:33:18.773Z,56.76
2019-01-11T14:35:49.162Z,56.42
2019-01-11T14:38:19.523Z,56.87
2019-01-11T14:40:50.637Z,56.94
2019-01-11T14:43:21.083Z,56.65
2019-01-11T14:45:52.161Z,56.75
2019-01-11T14:48:24.328Z,56.71
2019-01-11T14:50:56.209Z,56.47
2019-01-11T14:53:26.529Z,56.96
2019-01-11T14:55:59.807Z,56.33
2019-01-11T14:58:31.497Z,56.74
2019-01-11T15:01:02.162Z,57.27
2019-01-11T15:03:33.231Z,57.31
2019-01-11T15:06:03.601Z,57.21
2019-01-11T15:08:37.706Z,57.53
2019-01-11T15:11:10.792Z,57.84
2019-01-11T15:13:43.709Z,57.78
2019-01-11T15:16:13.990Z,58.12
2019-01-11T15:18:49.490Z,57.83
2019-01-11T15:21:21.386Z,58.07
2019-01-11T15:23:55.343Z,57.77
2019-01-11T15:26:27.700Z,57.86
2019-01-11T15:29:01.158Z,57.85
2019-01-11T15:31:32.527Z,57.56
2019-01-11T15:34:02.810Z,57.27
2019-01-11T15:36:39.176Z,56.91
2019-01-11T15:39:11.063Z,56.96
2019-01-11T15:41:42.756Z,56.79
2019-01-11T15:44:14.529Z,56.48
2019-01-11T15:46:47.521Z,56.58
2019-01-11T15:49:18.193Z,56.64
2019-01-11T15:51:48.506Z,57.09
2019-01-11T15:54:19.194Z,57.24
2019-01-11T15:56:49.587Z,57.73
2019-01-11T15:59:19.872Z,57.79
2019-01-11T16:01:58.767Z,57.59
2019-01-11T16:04:43.211Z,57.93
2019-01-11T16:07:17.079Z,58.22
2019-01-11T16:10:01.243Z,58.35
2019-01-11T16:13:02.553Z,58.59
2019-01-11T16:16:05.873Z,58.58
2019-01-11T16:18:36.715Z,58.23
2019-01-11T16:21:13.795Z,57.92
2019-01-11T16:23:44.237Z,57.62
2019-01-11T16:26:14.529Z,57.64
2019-01-11T16:28:55.418Z,57.85
2019-01-11T16:33:52.092Z,57.96
2019-01-11T16:36:23.770Z,57.95
2019-01-11T16:38:54.897Z,57.69
2019-01-11T16:41:25.248Z,57.69
2019-01-11T16:43:55.618Z,57.21
2019-01-11T16:46:27.599Z,57.05
2019-01-11T16:48:58.407Z,56.99
2019-01-11T16:51:28.778Z,57.32
2019-01-11T16:54:01.599Z,57.04
2019-01-11T16:56:31.903Z,57.16
2019-01-11T16:59:05.489Z,57.18
2019-01-11T17:01:38.863Z,57.21
2019-01-11T17:04:09.156Z,56.94
2019-01-11T17:06:40.857Z,56.68
2019-01-11T17:09:11.219Z,56.27
2019-01-11T17:11:42.898Z,56.23
2019-01-11T17:14:16.644Z,55.37
2019-01-11T17:16:49.346Z,55.44
2019-01-11T17:19:21.525Z,55.06
2019-01-11T17:21:51.887Z,55.15
2019-01-11T17:24:27.211Z,55.15
2019-01-11T17:26:57.778Z,55.70
2019-01-11T17:29:28.273Z,56.11
2019-01-11T17:31:59.407Z,56.51
2019-01-11T17:34:30.197Z,56.76
2019-01-11T17:37:07.585Z,56.50
2019-01-11T17:39:38.181Z,56.36
2019-01-11T17:42:12.046Z,56.06
2019-01-11T17:44:46.880Z,56.48
2019-01-11T17:47:17.596Z,55.62
2019-01-11T17:49:47.923Z,56.06
2019-01-11T17:52:19.102Z,56.08
2019-01-11T17:54:49.785Z,56.35
2019-01-11T17:57:21.627Z,56.48
2019-01-11T17:59:52.055Z,56.68
2019-01-11T18:02:25.779Z,56.22
2019-01-11T18:04:56.082Z,55.65
2019-01-11T18:07:29.730Z,56.03
2019-01-11T18:10:03.158Z,56.01
2019-01-11T18:12:36.311Z,56.46
2019-01-11T18:15:11.652Z,56.58
2019-01-11T18:17:43.261Z,56.71
2019-01-11T18:20:18.928Z,56.86
2019-01-11T18:22:49.330Z,56.17
2019-01-11T18:25:28.464Z,56.35
2019-01-11T18:28:01.560Z,56.72
2019-01-11T18:30:34.565Z,56.90
2019-01-11T18:33:06.097Z,56.97
2019-01-11T18:35:36.606Z,57.26
2019-01-11T18:38:10.005Z,57.35
2019-01-11T18:40:41.747Z,57.80
2019-01-11T18:43:15.644Z,58.04
2019-01-11T18:45:46.017Z,57.66
2019-01-11T18:48:16.986Z,57.22
2019-01-11T18:50:52.267Z,57.33
2019-01-11T18:53:25.096Z,57.67
2019-01-11T18:56:05.508Z,57.73
2019-01-11T18:58:35.562Z,57.79
2019-01-11T19:01:05.897Z,58.05
2019-01-11T19:03:37.185Z,57.66
2019-01-11T19:06:07.848Z,57.88
2019-01-11T19:08:38.237Z,58.29
2019-01-11T19:11:08.568Z,58.55
2019-01-11T19:13:41.913Z,58.97
2019-01-11T19:16:19.369Z,59.05
2019-01-11T19:18:52.574Z,59.64
2019-01-11T19:21:23.482Z,59.31
2019-01-11T19:24:00.811Z,59.25
2019-01-11T19:26:32.811Z,59.09
2019-01-11T19:29:03.391Z,58.73
2019-01-11T19:31:38.428Z,58.49
2019-01-11T19:34:08.955Z,58.52
2019-01-11T19:36:39.529Z,58.36
2019-01-11T19:39:16.293Z,58.50
2019-01-11T19:41:46.885Z,58.89
2019-01-11T19:44:17.148Z,59.38
2019-01-11T19:46:50.293Z,58.75
2019-01-11T19:49:26.864Z,58.63
2019-01-11T19:51:57.315Z,57.33
2019-01-11T19:54:27.678Z,57.89
2019-01-11T19:56:58.820Z,58.07
2019-01-11T19:59:34.642Z,58.07
2019-01-11T20:02:11.160Z,58.25
2019-01-11T20:04:37.021Z,58.56
2019-01-11T20:07:07.454Z,58.10
2019-01-11T20:09:44.909Z,58.00
2019-01-11T20:12:15.297Z,57.32
2019-01-11T20:14:46.832Z,57.75
2019-01-11T20:17:17.107Z,57.81
2019-01-11T20:19:47.494Z,57.49
2019-01-11T20:22:17.964Z,57.82
2019-01-11T20:24:49.090Z,58.20
2019-01-11T20:27:21.800Z,57.43
2019-01-11T20:29:55.697Z,57.58
2019-01-11T20:32:27.495Z,57.57
2019-01-11T20:34:58.691Z,57.74
2019-01-11T20:37:30.452Z,57.74
2019-01-11T20:40:00.867Z,57.94
2019-01-11T20:42:32.113Z,57.11
2019-01-11T20:45:02.928Z,57.16
2019-01-11T20:47:34.047Z,57.71
2019-01-11T20:50:08.355Z,57.75
2019-01-11T20:52:38.718Z,58.09
2019-01-11T20:55:10.177Z,57.57
2019-01-11T20:57:42.309Z,57.45
2019-01-11T21:00:35.447Z,57.59
2019-01-11T21:03:09.616Z,57.64
2019-01-11T21:05:40.038Z,57.68
2019-01-11T21:08:10.662Z,57.83
2019-01-11T21:10:42.667Z,58.04
2019-01-11T21:13:13.047Z,58.45
2019-01-11T21:15:45.094Z,58.91
2019-01-11T21:18:15.407Z,59.54
2019-01-11T21:20:45.803Z,58.95
2019-01-11T21:23:16.492Z,59.03
2019-01-11T21:25:49.661Z,58.46
2019-01-11T21:28:22.982Z,58.60
2019-01-11T21:30:57.406Z,59.42
2019-01-11T21:33:29.381Z,58.94
2019-01-11T21:35:59.751Z,58.87
2019-01-11T21:38:30.896Z,58.52
2019-01-11T21:41:03.524Z,58.01
2019-01-11T21:43:34.791Z,58.55
2019-01-11T21:46:07.423Z,58.24
2019-01-11T21:48:38.142Z,57.56
2019-01-11T21:51:08.604Z,57.92
2019-01-11T21:53:40.878Z,58.79
2019-01-11T21:56:11.550Z,59.32
2019-01-11T21:58:41.967Z,59.77
2019-01-11T22:01:12.340Z,58.94
2019-01-11T22:03:45.273Z,58.76
2019-01-11T22:06:18.716Z,59.13
2019-01-11T22:09:50.516Z,58.67
2019-01-11T22:12:23.234Z,58.41
2019-01-11T22:15:01.706Z,59.37
2019-01-11T22:17:32.049Z,59.82
2019-01-11T22:20:03.317Z,60.36
2019-01-11T22:22:34.019Z,61.07
2019-01-11T22:25:05.607Z,61.19
2019-01-11T22:27:38.733Z,61.08
2019-01-11T22:30:30.516Z,61.52
2019-01-11T22:33:00.600Z,61.68
2019-01-11T22:35:31.267Z,61.15
2019-01-11T22:38:01.543Z,61.26
2019-01-11T22:40:34.710Z,61.56
2019-01-11T22:43:05.186Z,61.75
2019-01-11T22:45:44.353Z,61.72
2019-01-11T22:48:17.929Z,61.42
2019-01-11T22:50:51.459Z,61.51
2019-01-11T22:53:21.988Z,61.35
2019-01-11T22:55:54.609Z,61.06
2019-01-11T22:58:28.571Z,60.86
2019-01-11T23:01:24.850Z,61.05
2019-01-11T23:03:56.163Z,61.21
2019-01-11T23:07:24.252Z,61.69
2019-01-11T23:10:24.665Z,61.60
2019-01-11T23:13:03.148Z,61.65
2019-01-11T23:15:37.093Z,61.31
2019-01-11T23:18:15.350Z,61.44
2019-01-11T23:20:50.342Z,61.17
2019-01-11T23:23:21.432Z,61.91
2019-01-11T23:25:51.745Z,62.03
2019-01-11T23:28:22.520Z,62.01
2019-01-11T23:30:53.213Z,62.04
2019-01-11T23:33:23.588Z,61.74
2019-01-11T23:35:54.169Z,61.49
2019-01-11T23:38:24.571Z,61.10
2019-01-11T23:40:55.213Z,61.53
2019-01-11T23:43:27.264Z,61.60
2019-01-11T23:46:07.479Z,61.54
2019-01-11T23:48:38.058Z,61.97
2019-01-11T23:51:11.988Z,62.18
2019-01-11T23:53:46.160Z,61.56
2019-01-11T23:56:18.759Z,61.94
2019-01-11T23:58:49.499Z,61.51
